Time;durP1;ratioP1;P1;durP2;ratioP2;P2;SDS_P1;SDS_P2;PMS_P1;PMS_P2;Temp;Humidity;BMP_temperature;BMP_pressure;BME280_temperature;BME280_humidity;BME280_pressure;Samples;Min_cycle;Max_cycle;Signal;HPM_P1;HPM_P2
2023/07/24 00:02:04;;;;;;;24.00;8.70;;;;;;;;;;5104298;28;20119;-66
2023/07/24 00:04:33;;;;;;;16.23;7.93;;;;;;;;;;5103119;28;20036;-65
2023/07/24 00:07:00;;;;;;;14.38;6.60;;;;;;;;;;5107380;28;20700;-66
2023/07/24 00:09:26;;;;;;;20.13;7.63;;;;;;;;;;5101480;28;20035;-66
2023/07/24 00:11:53;;;;;;;16.27;7.47;;;;;;;;;;5101345;28;21132;-66
2023/07/24 00:14:19;;;;;;;15.90;6.38;;;;;;;;;;5101850;28;20402;-66
2023/07/24 00:16:45;;;;;;;15.23;6.47;;;;;;;;;;5103636;28;20757;-66
2023/07/24 00:19:11;;;;;;;14.32;6.25;;;;;;;;;;5099044;28;20035;-66
2023/07/24 00:21:37;;;;;;;17.42;8.00;;;;;;;;;;5100363;28;20131;-66
2023/07/24 00:24:04;;;;;;;14.07;6.70;;;;;;;;;;5101837;28;20331;-66
2023/07/24 00:26:30;;;;;;;19.20;6.85;;;;;;;;;;5098573;28;20046;-66
2023/07/24 00:28:56;;;;;;;18.50;7.18;;;;;;;;;;5100263;28;20127;-66
2023/07/24 00:31:22;;;;;;;19.38;8.18;;;;;;;;;;5133655;27;20126;-66
2023/07/24 00:33:49;;;;;;;22.27;7.25;;;;;;;;;;5101119;28;20382;-66
2023/07/24 00:36:15;;;;;;;17.15;6.93;;;;;;;;;;5099913;28;20044;-65
2023/07/24 00:38:41;;;;;;;18.63;6.22;;;;;;;;;;5096693;28;20126;-66
2023/07/24 00:41:07;;;;;;;16.67;6.18;;;;;;;;;;5110388;28;20035;-66
2023/07/24 00:43:33;;;;;;;11.98;5.93;;;;;;;;;;5107272;28;20115;-66
2023/07/24 00:46:00;;;;;;;17.63;6.85;;;;;;;;;;5107075;28;20048;-65
2023/07/24 00:48:26;;;;;;;17.38;6.38;;;;;;;;;;5110342;28;20138;-65
2023/07/24 00:50:52;;;;;;;15.10;6.30;;;;;;;;;;5102032;28;20052;-66
2023/07/24 00:53:19;;;;;;;20.83;8.10;;;;;;;;;;5107965;28;20514;-66
2023/07/24 00:55:46;;;;;;;16.98;6.55;;;;;;;;;;5110382;28;20367;-66
2023/07/24 00:58:13;;;;;;;17.50;7.05;;;;;;;;;;5107382;28;20460;-66
2023/07/24 01:00:40;;;;;;;15.15;6.07;;;;;;;;;;5098180;28;20047;-66
2023/07/24 01:03:06;;;;;;;15.60;6.90;;;;;;;;;;5106696;28;20406;-66
2023/07/24 01:05:32;;;;;;;17.92;6.90;;;;;;;;;;5108697;28;20455;-66
2023/07/24 01:07:58;;;;;;;14.82;7.53;;;;;;;;;;5106718;28;20087;-66
2023/07/24 01:10:25;;;;;;;17.02;8.13;;;;;;;;;;5110751;28;20062;-65
2023/07/24 01:13:06;;;;;;;26.38;8.85;;;;;;;;;;5109750;28;20031;-66
2023/07/24 01:15:38;;;;;;;24.42;8.38;;;;;;;;;;5094267;28;20047;-66
2023/07/24 01:18:11;;;;;;;28.33;10.35;;;;;;;;;;5104687;27;20071;-66
2023/07/24 01:20:39;;;;;;;21.90;8.52;;;;;;;;;;5110373;28;20032;-66
2023/07/24 01:23:08;;;;;;;17.48;9.18;;;;;;;;;;5111953;27;20116;-66
2023/07/24 01:25:35;;;;;;;24.48;9.95;;;;;;;;;;5112105;27;20036;-66
2023/07/24 01:28:01;;;;;;;22.40;11.20;;;;;;;;;;5112400;28;20040;-66
2023/07/24 01:30:28;;;;;;;21.15;9.98;;;;;;;;;;5111608;28;20040;-66
2023/07/24 01:32:54;;;;;;;20.58;11.15;;;;;;;;;;5113499;27;20051;-66
2023/07/24 01:35:20;;;;;;;21.40;10.18;;;;;;;;;;5114212;27;20118;-66
2023/07/24 01:37:47;;;;;;;20.63;11.18;;;;;;;;;;5109123;28;20055;-66
2023/07/24 01:40:13;;;;;;;22.67;10.88;;;;;;;;;;5110886;27;20044;-66
2023/07/24 01:42:40;;;;;;;26.63;11.00;;;;;;;;;;5113818;27;20051;-66
2023/07/24 01:45:06;;;;;;;22.35;10.50;;;;;;;;;;5107131;27;20522;-65
2023/07/24 01:47:33;;;;;;;18.13;9.10;;;;;;;;;;5105111;28;20166;-66
2023/07/24 01:49:59;;;;;;;22.70;10.57;;;;;;;;;;5102748;28;20131;-66
2023/07/24 01:52:25;;;;;;;25.05;10.05;;;;;;;;;;5104657;28;20097;-66
2023/07/24 01:54:51;;;;;;;23.92;10.27;;;;;;;;;;5102579;28;20493;-66
2023/07/24 01:57:17;;;;;;;23.63;10.40;;;;;;;;;;5103854;27;20082;-66
2023/07/24 01:59:44;;;;;;;20.33;9.68;;;;;;;;;;5101587;27;20035;-66
2023/07/24 02:02:11;;;;;;;22.67;9.73;;;;;;;;;;5103272;28;20047;-66
2023/07/24 02:04:37;;;;;;;22.23;10.45;;;;;;;;;;5101740;28;20043;-66
2023/07/24 02:07:03;;;;;;;20.25;10.20;;;;;;;;;;5104951;28;20039;-66
2023/07/24 02:09:29;;;;;;;20.17;10.63;;;;;;;;;;5104803;28;20411;-66
2023/07/24 02:11:55;;;;;;;20.80;9.05;;;;;;;;;;5108211;28;20047;-66
2023/07/24 02:14:21;;;;;;;24.50;10.82;;;;;;;;;;5112385;28;20035;-66
2023/07/24 02:16:48;;;;;;;24.02;10.85;;;;;;;;;;5112004;27;20047;-66
2023/07/24 02:19:14;;;;;;;22.60;9.55;;;;;;;;;;5101562;28;20468;-66
2023/07/24 02:21:40;;;;;;;22.05;9.80;;;;;;;;;;5105125;28;20035;-66
2023/07/24 02:24:06;;;;;;;27.13;12.07;;;;;;;;;;5093342;28;20039;-66
2023/07/24 02:26:33;;;;;;;20.15;10.60;;;;;;;;;;5075518;28;20120;-66
2023/07/24 02:28:59;;;;;;;20.88;11.15;;;;;;;;;;5103281;28;20043;-66
2023/07/24 02:31:26;;;;;;;22.85;10.05;;;;;;;;;;5103284;28;20136;-66
2023/07/24 02:33:52;;;;;;;27.40;10.65;;;;;;;;;;5104279;27;20040;-66
2023/07/24 02:36:18;;;;;;;23.27;10.20;;;;;;;;;;5104383;27;20036;-66
2023/07/24 02:38:44;;;;;;;22.55;10.23;;;;;;;;;;5104606;28;20509;-66
2023/07/24 02:41:12;;;;;;;22.83;11.15;;;;;;;;;;5102838;28;20090;-66
2023/07/24 02:43:38;;;;;;;26.80;10.75;;;;;;;;;;5104452;28;20110;-66
2023/07/24 02:46:04;;;;;;;24.23;10.25;;;;;;;;;;5104725;27;20040;-66
2023/07/24 02:48:30;;;;;;;34.25;11.07;;;;;;;;;;5100559;28;20452;-66
2023/07/24 02:50:56;;;;;;;20.48;10.77;;;;;;;;;;5099260;27;20089;-66
2023/07/24 02:53:22;;;;;;;23.13;10.82;;;;;;;;;;5133703;27;20055;-66
2023/07/24 02:55:49;;;;;;;17.67;10.13;;;;;;;;;;5103203;27;20126;-66
2023/07/24 02:58:15;;;;;;;22.95;10.23;;;;;;;;;;5108321;28;20043;-66
2023/07/24 03:00:41;;;;;;;20.75;9.13;;;;;;;;;;5111575;27;20302;-66
2023/07/24 03:03:07;;;;;;;20.35;10.10;;;;;;;;;;5105389;28;20039;-66
2023/07/24 03:05:36;;;;;;;21.70;9.55;;;;;;;;;;5104113;28;20431;-66
2023/07/24 03:08:02;;;;;;;20.90;9.65;;;;;;;;;;5111228;27;20047;-66
2023/07/24 03:10:29;;;;;;;17.23;8.85;;;;;;;;;;5102291;28;20047;-66
2023/07/24 03:12:55;;;;;;;19.58;9.05;;;;;;;;;;5101621;27;20058;-66
2023/07/24 03:15:21;;;;;;;25.55;8.68;;;;;;;;;;5101090;28;20047;-66
2023/07/24 03:17:47;;;;;;;18.67;10.30;;;;;;;;;;5103815;28;20729;-66
2023/07/24 03:20:17;;;;;;;18.05;8.40;;;;;;;;;;5103750;28;20039;-66
2023/07/24 03:22:44;;;;;;;16.70;9.30;;;;;;;;;;5100166;28;20047;-66
2023/07/24 03:25:10;;;;;;;17.92;7.70;;;;;;;;;;5103752;27;20047;-66
2023/07/24 03:27:37;;;;;;;29.10;9.48;;;;;;;;;;5103004;28;20495;-66
2023/07/24 03:30:03;;;;;;;17.90;8.50;;;;;;;;;;5099798;28;20047;-66
2023/07/24 03:32:29;;;;;;;27.27;9.05;;;;;;;;;;5102965;28;20064;-66
2023/07/24 03:34:56;;;;;;;22.08;8.45;;;;;;;;;;5101028;28;20130;-66
2023/07/24 03:37:22;;;;;;;15.50;7.45;;;;;;;;;;5108722;27;20114;-66
2023/07/24 03:39:48;;;;;;;16.83;7.53;;;;;;;;;;5112633;28;20564;-70
2023/07/24 03:42:25;;;;;;;18.30;7.43;;;;;;;;;;5113458;27;20047;-65
2023/07/24 03:44:51;;;;;;;17.00;7.30;;;;;;;;;;5111945;28;20058;-66
2023/07/24 03:47:17;;;;;;;13.77;6.95;;;;;;;;;;5110732;28;20101;-66
2023/07/24 03:49:43;;;;;;;16.88;6.75;;;;;;;;;;5112251;28;20043;-66
2023/07/24 03:52:10;;;;;;;14.77;7.03;;;;;;;;;;5105878;28;20089;-66
2023/07/24 03:54:36;;;;;;;21.60;8.10;;;;;;;;;;5102183;28;20379;-66
2023/07/24 03:57:02;;;;;;;17.25;7.07;;;;;;;;;;5099586;28;20048;-66
2023/07/24 03:59:29;;;;;;;19.13;7.10;;;;;;;;;;5102211;27;20039;-66
2023/07/24 04:01:55;;;;;;;16.83;6.47;;;;;;;;;;5101012;28;20040;-66
2023/07/24 04:04:21;;;;;;;19.00;7.07;;;;;;;;;;5108868;28;20043;-66
2023/07/24 04:06:47;;;;;;;22.33;6.63;;;;;;;;;;5110691;28;20043;-66
2023/07/24 04:09:16;;;;;;;20.48;7.00;;;;;;;;;;5101980;28;20131;-66
2023/07/24 04:11:43;;;;;;;16.45;6.90;;;;;;;;;;5107011;28;20119;-66
2023/07/24 04:14:09;;;;;;;17.90;6.53;;;;;;;;;;5109694;28;20059;-66
2023/07/24 04:16:35;;;;;;;16.88;6.57;;;;;;;;;;5111234;28;20043;-66
2023/07/24 04:19:02;;;;;;;18.73;6.32;;;;;;;;;;5106148;27;20043;-66
2023/07/24 04:21:28;;;;;;;21.33;6.88;;;;;;;;;;5114052;27;20802;-66
2023/07/24 04:23:54;;;;;;;15.20;6.85;;;;;;;;;;5100783;28;20122;-66
2023/07/24 04:26:20;;;;;;;14.55;6.95;;;;;;;;;;5100915;28;20032;-66
2023/07/24 04:28:46;;;;;;;16.17;7.15;;;;;;;;;;5107437;28;20044;-66
2023/07/24 04:31:13;;;;;;;29.15;7.88;;;;;;;;;;5106821;28;20051;-66
2023/07/24 04:33:39;;;;;;;26.75;7.78;;;;;;;;;;5110371;28;20463;-66
2023/07/24 04:36:05;;;;;;;20.65;7.05;;;;;;;;;;5103132;28;20063;-66
2023/07/24 04:38:31;;;;;;;17.45;7.75;;;;;;;;;;5117024;27;20483;-66
2023/07/24 04:41:03;;;;;;;16.45;7.75;;;;;;;;;;5101098;28;20123;-66
2023/07/24 04:43:30;;;;;;;15.50;8.02;;;;;;;;;;5101288;28;20040;-66
2023/07/24 04:45:56;;;;;;;15.98;7.75;;;;;;;;;;5101106;28;20086;-66
2023/07/24 04:48:22;;;;;;;17.50;7.10;;;;;;;;;;5102312;28;20054;-66
2023/07/24 04:50:54;;;;;;;20.02;7.57;;;;;;;;;;5104239;28;20135;-66
2023/07/24 04:53:21;;;;;;;15.15;7.35;;;;;;;;;;5105214;28;20135;-66
2023/07/24 04:55:48;;;;;;;18.63;7.07;;;;;;;;;;5105352;28;20130;-66
2023/07/24 04:58:14;;;;;;;18.58;7.00;;;;;;;;;;5111314;28;20069;-66
2023/07/24 05:00:40;;;;;;;21.60;8.35;;;;;;;;;;5114550;27;20044;-66
2023/07/24 05:03:10;;;;;;;17.42;7.05;;;;;;;;;;5114205;27;20353;-65
2023/07/24 05:05:37;;;;;;;21.02;6.85;;;;;;;;;;5115528;28;20093;-66
2023/07/24 05:08:03;;;;;;;14.65;6.65;;;;;;;;;;5115176;28;20044;-65
2023/07/24 05:10:30;;;;;;;19.30;6.72;;;;;;;;;;5113796;27;20086;-66
2023/07/24 05:12:56;;;;;;;25.33;6.65;;;;;;;;;;5115310;27;20184;-66
2023/07/24 05:15:23;;;;;;;21.20;8.18;;;;;;;;;;5122386;27;20063;-66
2023/07/24 05:17:49;;;;;;;14.60;6.20;;;;;;;;;;5120561;27;20043;-65
2023/07/24 05:20:15;;;;;;;17.25;7.50;;;;;;;;;;5114077;28;20069;-66
2023/07/24 05:22:41;;;;;;;17.55;7.05;;;;;;;;;;5113021;27;20075;-66
2023/07/24 05:25:08;;;;;;;13.93;7.50;;;;;;;;;;5115100;27;20462;-66
2023/07/24 05:27:35;;;;;;;15.32;6.40;;;;;;;;;;5114193;28;20150;-66
2023/07/24 05:30:01;;;;;;;17.75;7.78;;;;;;;;;;5113402;28;20506;-66
2023/07/24 05:32:27;;;;;;;17.67;7.60;;;;;;;;;;5108344;27;20071;-66
2023/07/24 05:34:54;;;;;;;19.55;7.75;;;;;;;;;;5113692;28;20118;-66
2023/07/24 05:37:20;;;;;;;19.13;7.35;;;;;;;;;;5113661;27;20047;-66
2023/07/24 05:39:46;;;;;;;17.20;7.38;;;;;;;;;;5115359;28;20092;-66
2023/07/24 05:42:12;;;;;;;27.58;8.50;;;;;;;;;;5112563;28;20051;-66
2023/07/24 05:44:38;;;;;;;19.17;8.18;;;;;;;;;;5108211;27;20450;-67
2023/07/24 05:47:05;;;;;;;20.58;8.05;;;;;;;;;;5113177;28;20050;-67
2023/07/24 05:49:31;;;;;;;20.00;8.30;;;;;;;;;;5113024;28;20058;-67
2023/07/24 05:51:57;;;;;;;27.73;8.25;;;;;;;;;;5108639;27;20048;-67
2023/07/24 05:54:23;;;;;;;17.00;7.65;;;;;;;;;;5113794;28;20048;-67
2023/07/24 05:56:49;;;;;;;17.13;7.40;;;;;;;;;;5113365;27;20150;-67
2023/07/24 05:59:16;;;;;;;23.23;7.88;;;;;;;;;;5114906;28;20039;-67
2023/07/24 06:01:42;;;;;;;19.98;7.72;;;;;;;;;;5111580;27;20046;-67
2023/07/24 06:04:08;;;;;;;22.00;7.25;;;;;;;;;;5114212;27;20074;-66
2023/07/24 06:06:36;;;;;;;19.70;7.82;;;;;;;;;;5113340;28;20133;-66
2023/07/24 06:09:02;;;;;;;19.20;8.15;;;;;;;;;;5114209;28;20465;-67
2023/07/24 06:11:29;;;;;;;18.00;7.13;;;;;;;;;;5111799;27;20122;-67
2023/07/24 06:13:55;;;;;;;19.63;7.65;;;;;;;;;;5113280;28;20154;-67
2023/07/24 06:16:21;;;;;;;20.50;7.10;;;;;;;;;;5112801;28;20088;-67
2023/07/24 06:18:48;;;;;;;15.05;7.15;;;;;;;;;;5100447;28;20126;-68
2023/07/24 06:21:14;;;;;;;15.90;7.28;;;;;;;;;;5107116;28;20184;-66
2023/07/24 06:23:40;;;;;;;17.00;7.22;;;;;;;;;;5112118;28;20479;-66
2023/07/24 06:26:06;;;;;;;23.10;7.80;;;;;;;;;;5111081;28;20345;-67
2023/07/24 06:28:33;;;;;;;19.77;6.72;;;;;;;;;;5105221;27;20095;-66
2023/07/24 06:30:59;;;;;;;19.95;6.55;;;;;;;;;;5104919;27;20056;-66
2023/07/24 06:33:25;;;;;;;24.00;7.68;;;;;;;;;;5110238;27;20044;-66
2023/07/24 06:35:52;;;;;;;17.83;7.75;;;;;;;;;;5144466;27;20031;-65
2023/07/24 06:38:18;;;;;;;21.75;7.60;;;;;;;;;;5110652;27;20131;-79
2023/07/24 06:40:44;;;;;;;23.92;7.93;;;;;;;;;;5107933;28;20046;-67
2023/07/24 06:43:10;;;;;;;18.55;7.00;;;;;;;;;;5111128;28;20126;-67
2023/07/24 06:45:36;;;;;;;21.98;8.55;;;;;;;;;;5109702;27;20036;-67
2023/07/24 06:48:03;;;;;;;25.38;8.15;;;;;;;;;;5109974;27;20062;-66
2023/07/24 06:50:29;;;;;;;22.45;8.23;;;;;;;;;;5107809;28;20058;-67
2023/07/24 06:52:55;;;;;;;25.40;8.32;;;;;;;;;;5108414;28;20119;-67
2023/07/24 06:55:21;;;;;;;23.15;7.40;;;;;;;;;;5107663;28;20043;-67
2023/07/24 06:57:48;;;;;;;15.50;7.00;;;;;;;;;;5109618;28;20042;-67
2023/07/24 07:00:14;;;;;;;22.80;8.02;;;;;;;;;;5094959;28;20043;-67
2023/07/24 07:02:40;;;;;;;22.30;8.43;;;;;;;;;;5111301;28;20434;-67
2023/07/24 07:05:07;;;;;;;18.00;7.22;;;;;;;;;;5107726;28;20411;-67
2023/07/24 07:07:33;;;;;;;20.95;8.27;;;;;;;;;;5108179;27;20074;-67
2023/07/24 07:09:59;;;;;;;22.85;8.77;;;;;;;;;;5109744;28;20061;-67
2023/07/24 07:12:25;;;;;;;19.75;7.75;;;;;;;;;;5110977;28;20104;-67
2023/07/24 07:14:51;;;;;;;20.15;8.38;;;;;;;;;;5110002;27;20434;-67
2023/07/24 07:17:18;;;;;;;19.98;8.30;;;;;;;;;;5109405;28;20047;-67
2023/07/24 07:19:44;;;;;;;19.92;8.23;;;;;;;;;;5093069;28;20066;-67
2023/07/24 07:22:10;;;;;;;18.30;7.50;;;;;;;;;;5108925;27;20488;-67
2023/07/24 07:24:36;;;;;;;18.10;7.90;;;;;;;;;;5111049;28;20043;-67
2023/07/24 07:27:03;;;;;;;18.83;8.27;;;;;;;;;;5109221;28;20052;-67
2023/07/24 07:29:31;;;;;;;27.15;8.88;;;;;;;;;;5087006;28;20047;-66
2023/07/24 07:31:57;;;;;;;28.77;8.10;;;;;;;;;;5108682;28;20166;-67
2023/07/24 07:34:23;;;;;;;20.45;7.95;;;;;;;;;;5110932;28;20032;-67
2023/07/24 07:36:49;;;;;;;23.13;8.27;;;;;;;;;;5108764;28;20062;-67
2023/07/24 07:39:16;;;;;;;19.70;8.07;;;;;;;;;;5103727;27;20177;-67
2023/07/24 07:41:42;;;;;;;21.13;8.27;;;;;;;;;;5100842;28;20044;-67
2023/07/24 07:44:08;;;;;;;21.52;8.55;;;;;;;;;;5109442;28;20043;-67
2023/07/24 07:46:34;;;;;;;22.85;8.52;;;;;;;;;;5109468;28;20494;-67
2023/07/24 07:49:00;;;;;;;19.83;7.78;;;;;;;;;;5107878;28;20086;-67
2023/07/24 07:51:27;;;;;;;23.10;9.10;;;;;;;;;;5109806;27;20043;-67
2023/07/24 07:53:53;;;;;;;20.85;7.97;;;;;;;;;;5110501;28;20036;-67
2023/07/24 07:56:19;;;;;;;17.40;7.93;;;;;;;;;;5108149;27;20402;-67
2023/07/24 07:58:45;;;;;;;16.88;7.85;;;;;;;;;;5110154;28;20063;-66
2023/07/24 08:01:11;;;;;;;23.50;7.63;;;;;;;;;;5112504;27;20135;-67
2023/07/24 08:03:38;;;;;;;16.10;8.15;;;;;;;;;;5109892;28;20063;-65
2023/07/24 08:06:04;;;;;;;19.88;9.23;;;;;;;;;;5110517;28;20052;-66
2023/07/24 08:08:30;;;;;;;19.30;9.18;;;;;;;;;;5108165;28;20111;-67
2023/07/24 08:10:56;;;;;;;24.30;9.48;;;;;;;;;;5104805;27;20040;-67
2023/07/24 08:13:23;;;;;;;22.35;8.25;;;;;;;;;;5105146;27;20416;-67
2023/07/24 08:15:50;;;;;;;21.25;7.70;;;;;;;;;;5103842;28;20082;-67
2023/07/24 08:18:16;;;;;;;23.27;10.60;;;;;;;;;;5103912;28;20048;-66
2023/07/24 08:20:42;;;;;;;19.42;8.88;;;;;;;;;;5106176;28;20092;-67
2023/07/24 08:23:08;;;;;;;15.10;7.63;;;;;;;;;;5105963;28;20032;-67
2023/07/24 08:25:35;;;;;;;16.50;7.28;;;;;;;;;;5103081;28;20088;-67
2023/07/24 08:28:01;;;;;;;18.88;7.55;;;;;;;;;;5098993;28;20051;-66
2023/07/24 08:30:28;;;;;;;18.02;7.80;;;;;;;;;;5103203;28;20112;-67
2023/07/24 08:32:54;;;;;;;14.25;6.43;;;;;;;;;;5101209;28;20474;-66
2023/07/24 08:35:20;;;;;;;17.80;6.75;;;;;;;;;;5101642;28;20138;-67
2023/07/24 08:37:47;;;;;;;12.20;6.57;;;;;;;;;;5100886;28;20070;-66
2023/07/24 08:40:13;;;;;;;25.35;8.68;;;;;;;;;;5099590;28;20043;-66
2023/07/24 08:42:40;;;;;;;18.35;7.20;;;;;;;;;;5103354;28;20040;-66
2023/07/24 08:45:12;;;;;;;20.15;7.45;;;;;;;;;;5086890;28;20395;-66
2023/07/24 08:47:40;;;;;;;21.48;8.05;;;;;;;;;;5103276;28;20040;-66
2023/07/24 08:50:06;;;;;;;19.17;7.60;;;;;;;;;;5103839;27;20573;-66
2023/07/24 08:52:33;;;;;;;18.42;7.10;;;;;;;;;;5101684;28;20410;-67
2023/07/24 08:55:03;;;;;;;19.65;6.25;;;;;;;;;;5109810;28;20144;-67
2023/07/24 08:57:30;;;;;;;13.27;6.93;;;;;;;;;;5109427;28;20051;-67
2023/07/24 08:59:56;;;;;;;19.55;7.07;;;;;;;;;;5107446;28;20036;-72
2023/07/24 09:02:22;;;;;;;16.15;7.07;;;;;;;;;;5103294;28;20058;-81
2023/07/24 09:04:48;;;;;;;12.85;6.47;;;;;;;;;;5105169;28;20058;-66
2023/07/24 09:07:15;;;;;;;16.13;6.45;;;;;;;;;;5107736;28;20075;-66
2023/07/24 09:09:41;;;;;;;16.55;6.40;;;;;;;;;;5108939;28;20075;-66
2023/07/24 09:12:08;;;;;;;14.48;7.60;;;;;;;;;;5108578;28;20517;-66
2023/07/24 09:14:34;;;;;;;13.15;6.78;;;;;;;;;;5108185;28;20506;-66
2023/07/24 09:17:04;;;;;;;12.40;6.10;;;;;;;;;;5108610;28;20078;-67
2023/07/24 09:19:30;;;;;;;14.95;7.18;;;;;;;;;;5108045;28;20051;-66
2023/07/24 09:21:57;;;;;;;12.25;6.72;;;;;;;;;;5107317;28;20036;-66
2023/07/24 09:24:23;;;;;;;14.35;7.38;;;;;;;;;;5102479;28;20661;-67
2023/07/24 09:26:49;;;;;;;13.35;7.50;;;;;;;;;;5107395;28;20051;-67
2023/07/24 09:29:15;;;;;;;11.68;7.32;;;;;;;;;;5105343;28;20092;-66
2023/07/24 09:31:43;;;;;;;11.43;6.43;;;;;;;;;;5108124;28;20451;-67
2023/07/24 09:34:16;;;;;;;12.00;6.47;;;;;;;;;;5105256;28;20043;-67
2023/07/24 09:36:42;;;;;;;;;;;;;;;;;;5106764;27;20043;-67
2023/07/24 09:39:10;;;;;;;12.18;7.05;;;;;;;;;;5112008;28;20057;-67
2023/07/24 09:41:37;;;;;;;11.35;6.50;;;;;;;;;;5111043;28;20095;-66
2023/07/24 09:44:03;;;;;;;12.80;7.20;;;;;;;;;;5111957;28;20482;-66
2023/07/24 09:46:29;;;;;;;12.45;7.07;;;;;;;;;;5092050;28;20695;-66
2023/07/24 09:48:57;;;;;;;13.60;7.70;;;;;;;;;;5112098;28;20035;-66
2023/07/24 09:51:23;;;;;;;10.88;7.32;;;;;;;;;;5110012;28;20059;-67
2023/07/24 09:53:58;;;;;;;12.25;7.93;;;;;;;;;;5111480;27;20036;-66
2023/07/24 09:56:26;;;;;;;11.20;7.28;;;;;;;;;;5110087;28;20047;-66
2023/07/24 09:58:55;;;;;;;11.15;8.20;;;;;;;;;;5111083;28;20107;-66
2023/07/24 10:01:21;;;;;;;11.98;7.35;;;;;;;;;;5110122;27;20495;-67
2023/07/24 10:03:49;;;;;;;10.23;7.25;;;;;;;;;;5110357;28;20039;-66
2023/07/24 10:06:18;;;;;;;17.42;7.47;;;;;;;;;;5110414;28;20371;-66
2023/07/24 10:08:45;;;;;;;11.00;6.72;;;;;;;;;;5109728;28;20126;-67
2023/07/24 10:11:15;;;;;;;13.10;7.07;;;;;;;;;;5110255;27;20051;-67
2023/07/24 10:13:42;;;;;;;9.35;6.07;;;;;;;;;;5108615;27;20044;-67
2023/07/24 10:16:08;;;;;;;7.30;5.75;;;;;;;;;;5109999;27;20039;-68
2023/07/24 10:18:35;;;;;;;12.50;5.97;;;;;;;;;;5110808;28;20122;-66
2023/07/24 10:21:02;;;;;;;7.93;5.32;;;;;;;;;;5107768;28;20066;-68
2023/07/24 10:23:29;;;;;;;8.77;6.40;;;;;;;;;;5110406;28;20096;-68
2023/07/24 10:25:55;;;;;;;9.10;5.82;;;;;;;;;;5110154;28;20136;-67
2023/07/24 10:28:30;;;;;;;8.18;5.53;;;;;;;;;;5093823;28;20181;-67
2023/07/24 10:30:57;;;;;;;9.43;5.85;;;;;;;;;;5110369;28;20064;-68
2023/07/24 10:33:23;;;;;;;9.07;5.03;;;;;;;;;;5111142;27;20458;-67
2023/07/24 10:36:04;;;;;;;10.88;5.43;;;;;;;;;;5110611;27;20062;-68
2023/07/24 10:38:37;;;;;;;10.43;5.38;;;;;;;;;;5110697;27;20105;-67
2023/07/24 10:41:04;;;;;;;8.20;5.60;;;;;;;;;;5111026;28;20066;-68
2023/07/24 10:43:30;;;;;;;8.32;5.45;;;;;;;;;;5110741;27;20411;-67
2023/07/24 10:45:56;;;;;;;8.52;5.15;;;;;;;;;;5110058;28;20043;-67
2023/07/24 10:48:25;;;;;;;9.05;5.47;;;;;;;;;;5110769;28;20043;-68
2023/07/24 10:50:52;;;;;;;8.65;5.13;;;;;;;;;;5108573;27;20076;-67
2023/07/24 10:53:20;;;;;;;9.75;5.72;;;;;;;;;;5109938;27;20043;-67
2023/07/24 10:55:53;;;;;;;8.25;4.88;;;;;;;;;;5108865;27;20055;-67
2023/07/24 10:58:19;;;;;;;;;;;;;;;;;;5110418;28;20067;-67
2023/07/24 11:00:46;;;;;;;8.68;5.13;;;;;;;;;;5108783;28;19923;-67
2023/07/24 11:03:13;;;;;;;7.50;4.28;;;;;;;;;;5109669;28;20497;-67
2023/07/24 11:05:43;;;;;;;7.72;4.95;;;;;;;;;;5107615;27;20135;-67
2023/07/24 11:08:14;;;;;;;8.55;5.25;;;;;;;;;;5108953;28;20101;-67
2023/07/24 11:10:45;;;;;;;7.00;5.10;;;;;;;;;;5108713;28;20051;-67
2023/07/24 11:13:12;;;;;;;7.60;4.80;;;;;;;;;;5110603;28;20054;-68
2023/07/24 11:15:38;;;;;;;8.32;4.25;;;;;;;;;;5109651;28;20035;-67
2023/07/24 11:18:08;;;;;;;8.48;4.50;;;;;;;;;;5092777;28;20039;-67
2023/07/24 11:20:37;;;;;;;7.28;4.05;;;;;;;;;;5108568;28;20058;-67
2023/07/24 11:23:03;;;;;;;6.50;3.80;;;;;;;;;;5110014;28;20047;-68
2023/07/24 11:25:30;;;;;;;6.72;5.07;;;;;;;;;;5109098;28;20060;-68
2023/07/24 11:27:56;;;;;;;7.97;4.68;;;;;;;;;;5085043;28;20047;-68
2023/07/24 11:30:23;;;;;;;7.82;4.95;;;;;;;;;;5132116;27;20070;-68
2023/07/24 11:32:49;;;;;;;8.85;4.53;;;;;;;;;;5136071;27;20050;-68
2023/07/24 11:35:16;;;;;;;8.13;4.68;;;;;;;;;;5102939;28;20539;-67
2023/07/24 11:37:42;;;;;;;7.63;4.53;;;;;;;;;;5101845;28;20039;-67
2023/07/24 11:40:13;;;;;;;8.02;4.45;;;;;;;;;;5105509;28;20039;-67
2023/07/24 11:42:41;;;;;;;8.15;4.05;;;;;;;;;;5105394;28;20051;-67
2023/07/24 11:45:09;;;;;;;6.70;4.20;;;;;;;;;;5123087;27;20087;-69
2023/07/24 11:47:42;;;;;;;5.25;3.55;;;;;;;;;;5116021;27;20469;-68
2023/07/24 11:50:08;;;;;;;6.88;3.40;;;;;;;;;;5111837;28;20044;-68
2023/07/24 11:52:45;;;;;;;6.78;3.58;;;;;;;;;;5111699;28;20168;-68
2023/07/24 11:55:12;;;;;;;4.90;2.88;;;;;;;;;;5110287;27;20461;-68
2023/07/24 11:57:39;;;;;;;6.03;2.80;;;;;;;;;;5112527;28;20112;-68
2023/07/24 12:00:06;;;;;;;4.25;2.40;;;;;;;;;;5112296;28;20407;-68
2023/07/24 12:02:33;;;;;;;3.90;2.22;;;;;;;;;;5112063;28;20505;-68
2023/07/24 12:05:00;;;;;;;5.05;2.30;;;;;;;;;;5110926;28;20044;-68
2023/07/24 12:07:30;;;;;;;3.20;1.88;;;;;;;;;;5112250;28;20046;-68
2023/07/24 12:09:57;;;;;;;2.05;1.15;;;;;;;;;;5111407;28;20040;-68
2023/07/24 12:12:23;;;;;;;2.38;1.38;;;;;;;;;;5112548;28;20078;-68
2023/07/24 12:14:49;;;;;;;3.17;1.20;;;;;;;;;;5111921;28;20444;-68
2023/07/24 12:17:19;;;;;;;3.33;1.30;;;;;;;;;;5111745;28;20134;-68
2023/07/24 12:19:46;;;;;;;5.70;1.00;;;;;;;;;;5111079;28;20483;-68
2023/07/24 12:22:13;;;;;;;2.50;1.10;;;;;;;;;;5110819;28;20494;-68
2023/07/24 12:24:39;;;;;;;4.53;1.30;;;;;;;;;;5110094;28;20376;-68
2023/07/24 12:27:05;;;;;;;3.72;1.00;;;;;;;;;;5112123;28;20035;-68
2023/07/24 12:29:31;;;;;;;3.22;0.93;;;;;;;;;;5112177;28;20100;-68
2023/07/24 12:31:58;;;;;;;2.95;0.90;;;;;;;;;;5109991;28;20473;-68
2023/07/24 12:34:24;;;;;;;2.67;1.00;;;;;;;;;;5111646;28;20036;-68
2023/07/24 12:36:52;;;;;;;5.53;1.05;;;;;;;;;;5111211;28;20158;-68
2023/07/24 12:39:18;;;;;;;6.80;1.80;;;;;;;;;;5109991;28;20075;-68
2023/07/24 12:41:44;;;;;;;6.50;1.98;;;;;;;;;;5110865;28;20100;-68
2023/07/24 12:44:10;;;;;;;5.43;1.77;;;;;;;;;;5109266;28;20040;-68
2023/07/24 12:46:36;;;;;;;4.97;1.10;;;;;;;;;;5112142;28;20115;-68
2023/07/24 12:49:03;;;;;;;5.97;1.65;;;;;;;;;;5110996;28;20376;-68
2023/07/24 12:51:29;;;;;;;5.70;1.35;;;;;;;;;;5110197;28;20595;-73
2023/07/24 12:53:55;;;;;;;5.50;1.23;;;;;;;;;;5105677;28;20487;-68
2023/07/24 12:56:21;;;;;;;8.60;1.63;;;;;;;;;;5096721;28;20039;-68
2023/07/24 12:58:48;;;;;;;8.23;2.30;;;;;;;;;;5094394;28;20048;-69
2023/07/24 13:01:14;;;;;;;6.82;1.67;;;;;;;;;;5105234;28;20096;-68
2023/07/24 13:03:40;;;;;;;8.63;1.73;;;;;;;;;;5103454;28;20046;-67
2023/07/24 13:06:06;;;;;;;5.57;1.52;;;;;;;;;;5107978;28;20471;-68
2023/07/24 13:08:32;;;;;;;6.43;1.80;;;;;;;;;;5109457;28;20052;-68
2023/07/24 13:10:59;;;;;;;6.00;1.60;;;;;;;;;;5108858;28;20043;-68
2023/07/24 13:13:25;;;;;;;7.68;2.20;;;;;;;;;;5109562;27;20043;-68
2023/07/24 13:15:52;;;;;;;8.25;1.88;;;;;;;;;;5112786;28;20040;-68
2023/07/24 13:18:19;;;;;;;5.55;1.42;;;;;;;;;;5113515;28;20035;-68
2023/07/24 13:20:46;;;;;;;9.32;1.38;;;;;;;;;;5112438;28;21086;-68
2023/07/24 13:23:12;;;;;;;7.78;1.55;;;;;;;;;;5111919;28;20040;-68
2023/07/24 13:25:38;;;;;;;7.97;2.03;;;;;;;;;;5110793;28;20040;-68
2023/07/24 13:28:04;;;;;;;10.68;1.88;;;;;;;;;;5109892;28;20534;-67
2023/07/24 13:30:31;;;;;;;9.30;2.03;;;;;;;;;;5111717;28;20050;-68
2023/07/24 13:32:57;;;;;;;10.15;2.42;;;;;;;;;;5111303;28;20582;-68
2023/07/24 13:35:23;;;;;;;8.30;1.83;;;;;;;;;;5105474;27;20062;-67
2023/07/24 13:37:49;;;;;;;10.07;2.63;;;;;;;;;;5105964;27;20472;-69
2023/07/24 13:40:16;;;;;;;10.30;2.38;;;;;;;;;;5140300;27;20054;-67
2023/07/24 13:42:42;;;;;;;9.45;2.20;;;;;;;;;;5107812;28;20415;-68
2023/07/24 13:45:08;;;;;;;4.95;1.10;;;;;;;;;;5106736;28;20035;-68
2023/07/24 13:47:34;;;;;;;7.90;1.30;;;;;;;;;;5105359;28;20047;-67
2023/07/24 13:50:03;;;;;;;5.35;1.40;;;;;;;;;;5108425;27;20044;-68
2023/07/24 13:52:32;;;;;;;5.00;1.55;;;;;;;;;;5090398;28;20376;-68
2023/07/24 13:54:58;;;;;;;7.85;1.95;;;;;;;;;;5104432;27;20518;-68
2023/07/24 13:57:24;;;;;;;8.80;1.85;;;;;;;;;;5105803;28;20504;-67
2023/07/24 13:59:51;;;;;;;5.82;1.50;;;;;;;;;;5107293;28;20028;-67
2023/07/24 14:02:18;;;;;;;8.52;1.70;;;;;;;;;;5104052;28;20047;-67
2023/07/24 14:04:44;;;;;;;8.68;1.75;;;;;;;;;;5109076;28;20043;-66
2023/07/24 14:07:12;;;;;;;10.70;2.08;;;;;;;;;;5112629;28;20044;-68
2023/07/24 14:09:39;;;;;;;7.07;1.80;;;;;;;;;;5110184;28;20048;-67
2023/07/24 14:12:05;;;;;;;9.50;2.00;;;;;;;;;;5110184;28;20048;-67
2023/07/24 14:14:31;;;;;;;7.43;1.50;;;;;;;;;;5110330;28;20100;-67
2023/07/24 14:16:58;;;;;;;7.10;1.48;;;;;;;;;;5113253;27;20452;-68
2023/07/24 14:19:24;;;;;;;4.32;1.55;;;;;;;;;;5112557;28;20040;-67
2023/07/24 14:21:51;;;;;;;4.97;1.40;;;;;;;;;;5111534;28;20082;-68
2023/07/24 14:24:17;;;;;;;5.90;1.58;;;;;;;;;;5092702;28;20511;-67
2023/07/24 14:26:44;;;;;;;7.35;1.80;;;;;;;;;;5110876;28;20039;-67
2023/07/24 14:29:11;;;;;;;3.85;1.20;;;;;;;;;;5110905;28;20047;-67
2023/07/24 14:31:37;;;;;;;6.85;2.10;;;;;;;;;;5108432;28;20050;-67